Time;durP1;ratioP1;P1;durP2;ratioP2;P2;SDS_P1;SDS_P2;PMS_P1;PMS_P2;Temp;Humidity;BMP_temperature;BMP_pressure;BME280_temperature;BME280_humidity;BME280_pressure;Samples;Min_cycle;Max_cycle;Signal;HPM_P1;HPM_P2
2020/12/22 00:00:34;;;;;;;2.90;2.70;;;10.30;99.90;;;;;;5109642;28;20219;-83
2020/12/22 00:03:00;;;;;;;9.25;3.00;;;10.30;99.90;;;;;;5107970;28;20192;-84
2020/12/22 00:05:27;;;;;;;2.90;2.60;;;10.30;99.90;;;;;;5108223;28;20214;-84
2020/12/22 00:07:53;;;;;;;3.28;2.60;;;10.40;99.90;;;;;;5107939;28;20733;-84
2020/12/22 00:10:19;;;;;;;2.65;2.45;;;10.40;99.90;;;;;;5106113;28;20217;-84
2020/12/22 00:12:46;;;;;;;2.10;1.90;;;10.40;99.90;;;;;;5103900;28;20447;-83
2020/12/22 00:15:12;;;;;;;3.38;2.78;;;10.40;99.90;;;;;;5109354;28;20218;-82
2020/12/22 00:17:43;;;;;;;3.20;2.25;;;10.50;99.90;;;;;;5107840;28;20197;-83
2020/12/22 00:20:09;;;;;;;2.25;1.75;;;10.50;99.90;;;;;;5107967;28;20197;-82
2020/12/22 00:22:36;;;;;;;2.80;1.95;;;10.60;99.90;;;;;;5106203;28;20204;-82
2020/12/22 00:25:03;;;;;;;2.97;2.25;;;10.60;99.90;;;;;;5108069;28;20197;-83
2020/12/22 00:27:32;;;;;;;2.00;1.80;;;10.60;99.90;;;;;;5106800;28;21055;-83
2020/12/22 00:30:00;;;;;;;2.90;2.03;;;10.70;99.90;;;;;;5107243;28;20197;-83
2020/12/22 00:32:26;;;;;;;2.53;1.45;;;10.70;99.90;;;;;;5106811;28;20192;-83
2020/12/22 00:34:52;;;;;;;1.83;1.50;;;10.80;99.90;;;;;;5107646;28;20193;-83
2020/12/22 00:37:18;;;;;;;4.20;1.50;;;10.80;99.90;;;;;;5106423;28;20201;-83
2020/12/22 00:39:46;;;;;;;1.58;1.48;;;10.90;99.90;;;;;;5107219;28;20204;-83
2020/12/22 00:42:12;;;;;;;2.80;2.10;;;10.90;99.90;;;;;;5090961;28;20216;-80
2020/12/22 00:44:38;;;;;;;2.10;1.75;;;10.90;99.90;;;;;;5105816;28;20623;-82
2020/12/22 00:47:04;;;;;;;2.60;1.67;;;11.00;99.90;;;;;;5104924;28;20211;-80
2020/12/22 00:49:30;;;;;;;4.03;1.63;;;11.00;99.90;;;;;;5106550;28;20192;-84
2020/12/22 00:51:58;;;;;;;1.58;1.48;;;11.10;99.90;;;;;;5107034;28;20620;-81
2020/12/22 00:54:25;;;;;;;1.63;1.50;;;11.10;99.90;;;;;;5106539;28;20212;-83
2020/12/22 00:56:52;;;;;;;1.52;1.35;;;11.20;99.90;;;;;;5106413;28;20593;-83
2020/12/22 00:59:18;;;;;;;2.75;1.70;;;11.20;99.90;;;;;;5106384;28;20253;-83
2020/12/22 01:01:45;;;;;;;2.70;1.50;;;11.30;99.90;;;;;;5106143;28;20223;-83
2020/12/22 01:04:11;;;;;;;2.83;1.55;;;11.30;99.90;;;;;;5106118;28;20203;-83
2020/12/22 01:06:38;;;;;;;1.48;1.38;;;11.40;99.90;;;;;;5106074;28;20193;-82
2020/12/22 01:09:05;;;;;;;1.25;1.15;;;11.40;99.90;;;;;;5104917;28;20256;-82
2020/12/22 01:11:34;;;;;;;1.70;1.40;;;11.50;99.90;;;;;;5098457;28;20217;-83
2020/12/22 01:14:01;;;;;;;1.02;1.00;;;11.50;99.90;;;;;;5105089;28;20198;-80
2020/12/22 01:16:27;;;;;;;1.60;1.50;;;11.60;99.90;;;;;;5105255;28;20200;-82
2020/12/22 01:18:53;;;;;;;5.28;1.20;;;11.60;99.90;;;;;;5105814;28;20660;-83
2020/12/22 01:21:20;;;;;;;1.88;1.77;;;11.70;99.90;;;;;;5105829;28;20220;-82
2020/12/22 01:23:46;;;;;;;1.73;1.40;;;11.70;99.90;;;;;;5105374;28;20188;-82
2020/12/22 01:26:13;;;;;;;2.17;1.10;;;11.70;99.90;;;;;;5106028;28;20193;-83
2020/12/22 01:28:39;;;;;;;1.10;1.00;;;11.80;99.90;;;;;;5105551;28;20218;-83
2020/12/22 01:31:06;;;;;;;1.42;1.33;;;11.80;99.90;;;;;;5106165;28;20220;-82
2020/12/22 01:33:32;;;;;;;1.20;1.10;;;11.90;99.90;;;;;;5105488;28;20216;-82
2020/12/22 01:35:59;;;;;;;1.10;0.80;;;12.00;99.90;;;;;;5106787;28;20197;-82
2020/12/22 01:38:25;;;;;;;1.63;1.52;;;12.10;99.90;;;;;;5098643;28;20191;-83
2020/12/22 01:40:51;;;;;;;0.90;0.90;;;12.10;99.90;;;;;;5091569;28;20277;-82
2020/12/22 01:43:17;;;;;;;2.80;1.35;;;12.20;99.90;;;;;;5098773;28;20181;-83
2020/12/22 01:45:44;;;;;;;1.02;0.93;;;12.20;99.90;;;;;;5100807;28;20262;-81
2020/12/22 01:48:11;;;;;;;1.23;1.13;;;12.30;99.90;;;;;;5101457;28;20620;-81
2020/12/22 01:50:38;;;;;;;1.45;1.35;;;12.40;99.90;;;;;;5100543;28;20301;-82
2020/12/22 01:53:04;;;;;;;1.23;1.10;;;12.50;99.90;;;;;;5101051;28;20217;-82
2020/12/22 01:55:30;;;;;;;0.93;0.90;;;12.60;99.90;;;;;;5100231;28;20198;-82
2020/12/22 01:57:57;;;;;;;1.10;1.00;;;12.60;99.90;;;;;;5100346;28;20198;-83
2020/12/22 02:00:23;;;;;;;1.20;1.10;;;12.60;99.90;;;;;;5101840;28;20285;-81
2020/12/22 02:02:49;;;;;;;1.13;1.02;;;12.70;99.90;;;;;;5101966;28;20186;-81
2020/12/22 02:05:16;;;;;;;2.03;1.00;;;12.70;99.90;;;;;;5102094;28;20197;-81
2020/12/22 02:07:43;;;;;;;2.00;1.10;;;12.70;99.90;;;;;;5103371;28;20219;-83
2020/12/22 02:10:09;;;;;;;1.20;1.10;;;12.80;99.90;;;;;;5106673;28;20442;-83
2020/12/22 02:12:40;;;;;;;2.00;1.33;;;12.80;99.90;;;;;;5096568;28;20197;-82
2020/12/22 02:15:06;;;;;;;2.55;1.20;;;12.90;99.90;;;;;;5101093;28;20279;-82
2020/12/22 02:17:32;;;;;;;1.30;1.20;;;12.90;99.90;;;;;;5101767;28;20682;-81
2020/12/22 02:19:58;;;;;;;2.15;1.00;;;12.90;99.90;;;;;;5103293;28;20200;-81
2020/12/22 02:22:26;;;;;;;1.05;0.95;;;12.90;99.90;;;;;;5101850;28;20193;-82
2020/12/22 02:24:52;;;;;;;2.07;1.20;;;13.00;99.90;;;;;;5104391;28;20200;-82
2020/12/22 02:27:18;;;;;;;1.70;1.60;;;13.00;99.90;;;;;;5104441;28;20499;-82
2020/12/22 02:29:45;;;;;;;1.60;1.42;;;13.00;99.90;;;;;;5105585;28;20443;-82
2020/12/22 02:32:11;;;;;;;1.45;1.35;;;13.00;99.90;;;;;;5104800;28;20215;-82
2020/12/22 02:34:37;;;;;;;4.45;1.13;;;13.00;99.90;;;;;;5104880;28;20217;-81
2020/12/22 02:37:03;;;;;;;1.30;0.80;;;13.00;99.90;;;;;;5105052;28;20192;-82
2020/12/22 02:39:30;;;;;;;1.55;1.00;;;13.00;99.90;;;;;;5106387;28;20442;-83
2020/12/22 02:41:57;;;;;;;1.25;1.15;;;13.00;99.90;;;;;;5098605;28;20217;-83
2020/12/22 02:44:23;;;;;;;1.48;1.10;;;13.10;99.90;;;;;;5104950;28;20191;-82
2020/12/22 02:46:49;;;;;;;3.25;1.10;;;13.10;99.90;;;;;;5104055;28;20551;-81
2020/12/22 02:49:15;;;;;;;1.40;1.00;;;13.10;99.90;;;;;;5105569;28;20193;-82
2020/12/22 02:51:41;;;;;;;1.05;0.95;;;13.20;99.90;;;;;;5105236;28;20451;-82
2020/12/22 02:54:08;;;;;;;1.70;1.40;;;13.20;99.90;;;;;;5104665;28;20214;-82
2020/12/22 02:56:37;;;;;;;1.10;0.90;;;13.20;99.90;;;;;;5104497;28;20261;-80
2020/12/22 02:59:03;;;;;;;1.33;1.10;;;13.20;99.90;;;;;;5105768;28;20431;-81
2020/12/22 03:01:29;;;;;;;1.17;1.07;;;13.20;99.90;;;;;;5106812;28;20216;-82
2020/12/22 03:03:56;;;;;;;2.55;1.33;;;13.20;99.90;;;;;;5106739;28;20785;-82
2020/12/22 03:06:23;;;;;;;2.55;1.05;;;13.20;99.90;;;;;;5108221;28;20197;-81
2020/12/22 03:08:49;;;;;;;2.13;1.50;;;13.20;99.90;;;;;;5106016;28;20214;-82
2020/12/22 03:11:16;;;;;;;1.83;0.90;;;13.20;99.90;;;;;;5097760;28;20443;-82
2020/12/22 03:13:43;;;;;;;1.30;1.20;;;13.30;99.90;;;;;;5103185;28;20480;-81
2020/12/22 03:16:09;;;;;;;1.40;1.30;;;13.20;99.90;;;;;;5103050;28;20217;-83
2020/12/22 03:18:35;;;;;;;4.77;1.73;;;13.30;99.90;;;;;;5103553;28;20189;-81
2020/12/22 03:21:03;;;;;;;3.37;1.90;;;13.30;99.90;;;;;;5103256;28;20455;-82
2020/12/22 03:23:29;;;;;;;1.20;1.10;;;13.30;99.90;;;;;;5103947;28;20809;-80
2020/12/22 03:25:55;;;;;;;1.30;1.20;;;13.30;99.90;;;;;;5103881;28;20204;-82
2020/12/22 03:28:21;;;;;;;1.53;1.10;;;13.30;99.90;;;;;;5103657;28;20193;-82
2020/12/22 03:30:48;;;;;;;3.83;1.40;;;13.30;99.90;;;;;;5104090;28;20455;-82
2020/12/22 03:33:15;;;;;;;2.20;1.40;;;13.30;99.90;;;;;;5103742;28;20471;-81
2020/12/22 03:35:41;;;;;;;1.60;1.50;;;13.40;99.90;;;;;;5103500;28;20462;-82
2020/12/22 03:38:07;;;;;;;2.23;1.70;;;13.40;99.90;;;;;;5102754;28;20439;-79
2020/12/22 03:40:33;;;;;;;3.10;1.45;;;13.40;99.90;;;;;;5097966;28;20460;-82
2020/12/22 03:43:00;;;;;;;2.50;1.13;;;13.40;99.90;;;;;;5101788;28;20182;-79
2020/12/22 03:45:26;;;;;;;4.40;1.43;;;13.40;99.90;;;;;;5104716;28;20436;-85
2020/12/22 03:47:53;;;;;;;1.10;1.07;;;13.40;99.90;;;;;;5103618;28;20441;-82
2020/12/22 03:50:19;;;;;;;3.92;1.23;;;13.50;99.90;;;;;;5104841;28;20470;-81
2020/12/22 03:52:46;;;;;;;1.30;1.03;;;13.50;99.90;;;;;;5105293;28;20190;-83
2020/12/22 03:55:12;;;;;;;2.50;1.27;;;13.50;99.90;;;;;;5104169;28;20446;-81
2020/12/22 03:57:38;;;;;;;2.30;1.00;;;13.50;99.90;;;;;;5104299;28;20447;-83
2020/12/22 04:00:05;;;;;;;2.90;1.70;;;13.50;99.90;;;;;;5104022;28;20439;-84
2020/12/22 04:02:32;;;;;;;1.43;1.33;;;13.50;99.90;;;;;;5104085;28;20427;-83
2020/12/22 04:04:59;;;;;;;2.67;1.48;;;13.50;99.90;;;;;;5103233;28;20431;-83
2020/12/22 04:07:26;;;;;;;3.05;1.38;;;13.50;99.90;;;;;;5103728;28;20712;-83
2020/12/22 04:09:52;;;;;;;3.40;1.70;;;13.60;99.90;;;;;;5103640;28;20194;-84
2020/12/22 04:12:18;;;;;;;2.07;1.40;;;13.60;99.90;;;;;;5095648;28;20485;-83
2020/12/22 04:14:45;;;;;;;3.83;1.90;;;13.60;99.90;;;;;;5103231;28;20466;-84
2020/12/22 04:17:12;;;;;;;3.23;1.30;;;13.60;99.90;;;;;;5103008;28;20431;-83
2020/12/22 04:19:38;;;;;;;4.93;1.47;;;13.60;99.90;;;;;;5103107;28;20439;-84
2020/12/22 04:22:05;;;;;;;1.60;1.50;;;13.60;99.90;;;;;;5101797;28;20455;-84
2020/12/22 04:24:31;;;;;;;1.93;1.53;;;13.60;99.90;;;;;;5100847;28;20793;-82
2020/12/22 04:26:57;;;;;;;2.65;1.30;;;13.70;99.90;;;;;;5100871;28;20438;-82
2020/12/22 04:29:24;;;;;;;4.30;1.70;;;13.70;99.90;;;;;;5100612;28;20357;-81
2020/12/22 04:31:50;;;;;;;1.70;1.50;;;13.70;99.90;;;;;;5099698;28;20464;-83
2020/12/22 04:34:16;;;;;;;1.40;1.30;;;13.70;99.90;;;;;;5100151;28;20475;-83
2020/12/22 04:36:42;;;;;;;4.22;1.73;;;13.70;99.90;;;;;;5099560;28;20462;-80
2020/12/22 04:39:09;;;;;;;1.93;1.20;;;13.70;99.90;;;;;;5099617;28;20193;-81
2020/12/22 04:41:38;;;;;;;2.33;1.60;;;13.80;99.90;;;;;;5093191;28;20451;-83
2020/12/22 04:44:05;;;;;;;1.60;1.50;;;13.70;99.90;;;;;;5099643;28;20428;-82
2020/12/22 04:46:34;;;;;;;1.33;1.15;;;13.80;99.90;;;;;;5099220;28;20459;-81
2020/12/22 04:49:00;;;;;;;1.40;1.10;;;13.80;99.90;;;;;;5100047;28;20570;-85
2020/12/22 04:51:27;;;;;;;1.57;1.33;;;13.70;99.90;;;;;;5099756;28;20579;-84
2020/12/22 04:53:54;;;;;;;1.33;1.23;;;13.80;99.90;;;;;;5099743;28;20511;-82
2020/12/22 04:56:22;;;;;;;1.67;1.57;;;13.80;99.90;;;;;;5099669;28;20442;-81
2020/12/22 04:58:48;;;;;;;2.13;1.20;;;13.80;99.90;;;;;;5098938;28;20481;-80
2020/12/22 05:01:16;;;;;;;1.75;1.15;;;13.70;99.90;;;;;;5099251;28;20840;-82
2020/12/22 05:03:43;;;;;;;1.30;1.20;;;13.70;99.90;;;;;;5098626;28;20200;-82
2020/12/22 05:06:09;;;;;;;1.93;1.47;;;13.70;99.90;;;;;;5098916;28;20211;-81
2020/12/22 05:08:35;;;;;;;3.20;3.00;;;13.70;99.90;;;;;;5099208;28;20496;-83
2020/12/22 05:11:01;;;;;;;1.40;1.30;;;13.70;99.90;;;;;;5091895;28;20526;-82
2020/12/22 05:13:28;;;;;;;1.63;1.40;;;13.70;99.90;;;;;;5095124;28;20471;-84
2020/12/22 05:15:55;;;;;;;1.17;1.07;;;13.80;99.90;;;;;;5102924;28;20436;-85
2020/12/22 05:18:22;;;;;;;1.07;0.97;;;13.80;99.90;;;;;;5098595;28;20440;-82
2020/12/22 05:20:49;;;;;;;1.90;1.17;;;13.80;99.90;;;;;;5098631;28;20482;-82
2020/12/22 05:23:16;;;;;;;1.43;1.33;;;13.80;99.90;;;;;;5097979;28;20967;-81
2020/12/22 05:25:44;;;;;;;1.00;0.90;;;13.80;99.90;;;;;;5097192;28;20427;-82
2020/12/22 05:28:13;;;;;;;1.10;1.00;;;13.90;99.90;;;;;;5099116;28;20438;-82
2020/12/22 05:30:40;;;;;;;5.43;1.30;;;13.90;99.90;;;;;;5098267;28;20518;-81
2020/12/22 05:33:07;;;;;;;1.63;1.20;;;13.90;99.90;;;;;;5098405;28;20471;-83
2020/12/22 05:35:38;;;;;;;2.00;1.00;;;13.90;99.90;;;;;;5098779;28;20500;-80
2020/12/22 05:38:05;;;;;;;2.37;1.13;;;13.90;99.90;;;;;;5098910;28;20440;-83
2020/12/22 05:40:32;;;;;;;1.17;1.00;;;13.90;99.90;;;;;;5094839;28;20783;-82
2020/12/22 05:42:59;;;;;;;4.20;1.57;;;13.90;99.90;;;;;;5096831;28;20518;-82
2020/12/22 05:45:29;;;;;;;1.30;1.20;;;13.90;99.90;;;;;;5098533;28;20431;-85
2020/12/22 05:47:56;;;;;;;1.57;1.47;;;13.90;99.90;;;;;;5098156;28;21055;-83
2020/12/22 05:50:24;;;;;;;1.47;1.20;;;13.90;99.90;;;;;;5096541;28;20447;-82
2020/12/22 05:52:53;;;;;;;2.30;1.43;;;13.80;99.90;;;;;;5085898;28;20526;-84
2020/12/22 05:55:29;;;;;;;2.30;1.20;;;13.90;99.90;;;;;;5098099;28;20431;-83
2020/12/22 05:58:09;;;;;;;2.83;1.47;;;13.80;99.90;;;;;;5096220;28;20781;-82
2020/12/22 06:00:40;;;;;;;3.00;1.20;;;13.80;99.90;;;;;;5097172;28;21008;-84
2020/12/22 06:03:09;;;;;;;1.60;1.20;;;13.70;99.90;;;;;;5097349;28;20416;-82
2020/12/22 06:05:37;;;;;;;1.70;1.60;;;13.70;99.90;;;;;;5097093;28;20439;-81
2020/12/22 06:08:09;;;;;;;2.30;1.40;;;13.60;99.90;;;;;;5097189;28;20431;-83
2020/12/22 06:10:37;;;;;;;1.90;1.80;;;13.60;99.90;;;;;;5092889;28;20464;-82
2020/12/22 06:13:04;;;;;;;3.60;1.60;;;13.60;99.90;;;;;;5087141;28;20475;-82
2020/12/22 06:15:31;;;;;;;1.87;1.70;;;13.60;99.90;;;;;;5096769;28;20605;-82
2020/12/22 06:17:58;;;;;;;1.97;1.77;;;13.60;99.90;;;;;;5097376;28;20445;-82
2020/12/22 06:20:27;;;;;;;2.90;1.73;;;13.50;99.90;;;;;;5097019;28;20490;-83
2020/12/22 06:23:01;;;;;;;4.60;1.92;;;13.40;99.90;;;;;;5096870;28;20516;-82
2020/12/22 06:25:29;;;;;;;2.20;1.80;;;13.40;99.90;;;;;;5096683;28;20214;-83
2020/12/22 06:27:56;;;;;;;3.40;2.40;;;13.30;99.90;;;;;;5097063;28;20431;-85
2020/12/22 06:30:33;;;;;;;1.83;1.73;;;13.30;99.90;;;;;;5097082;28;20217;-81
2020/12/22 06:33:18;;;;;;;3.07;2.40;;;13.30;99.90;;;;;;5098366;28;20423;-83
2020/12/22 06:36:05;;;;;;;2.83;2.63;;;13.30;99.90;;;;;;5097287;28;20427;-82
2020/12/22 06:38:59;;;;;;;2.03;1.93;;;13.30;99.90;;;;;;5097122;28;20458;-82
2020/12/22 06:41:47;;;;;;;2.85;1.83;;;13.30;99.90;;;;;;5090993;28;20459;-82
2020/12/22 06:44:22;;;;;;;1.60;1.50;;;13.30;99.90;;;;;;5096788;28;20234;-82
2020/12/22 06:46:51;;;;;;;1.83;1.70;;;13.30;99.90;;;;;;5097298;28;20419;-82
2020/12/22 06:49:18;;;;;;;2.03;1.90;;;13.30;99.90;;;;;;5097519;28;20439;-83
2020/12/22 06:51:46;;;;;;;2.30;1.90;;;13.30;99.90;;;;;;5097254;28;20467;-81
2020/12/22 06:54:31;;;;;;;2.65;1.58;;;13.30;99.90;;;;;;5097398;28;20490;-82
2020/12/22 06:56:57;;;;;;;2.40;2.30;;;13.40;99.90;;;;;;5097761;28;20193;-83
2020/12/22 06:59:49;;;;;;;2.35;2.20;;;13.40;99.90;;;;;;5096856;28;20468;-82
2020/12/22 07:02:29;;;;;;;2.90;2.20;;;13.40;99.90;;;;;;5097347;28;20222;-83
2020/12/22 07:04:56;;;;;;;1.70;1.60;;;13.40;99.90;;;;;;5096299;28;20893;-84
2020/12/22 07:07:23;;;;;;;3.83;1.83;;;13.40;99.90;;;;;;5095395;28;20200;-82
2020/12/22 07:09:49;;;;;;;2.67;1.55;;;13.50;99.90;;;;;;5095448;28;20193;-84
2020/12/22 07:12:19;;;;;;;6.10;1.67;;;13.50;99.90;;;;;;5089061;28;20247;-82
2020/12/22 07:14:47;;;;;;;2.30;1.67;;;13.50;99.90;;;;;;5095597;28;20212;-84
2020/12/22 07:17:15;;;;;;;2.13;2.00;;;13.50;99.90;;;;;;5095948;28;20447;-82
2020/12/22 07:19:45;;;;;;;2.30;1.60;;;13.50;99.90;;;;;;5099001;28;20439;-79
2020/12/22 07:22:11;;;;;;;1.45;1.35;;;13.50;99.90;;;;;;5099398;28;20286;-82
2020/12/22 07:24:40;;;;;;;3.07;1.60;;;13.60;99.90;;;;;;5101223;28;20200;-82
2020/12/22 07:27:07;;;;;;;3.85;1.73;;;13.50;99.90;;;;;;5104163;28;20441;-82
2020/12/22 07:29:36;;;;;;;2.03;1.40;;;13.50;99.90;;;;;;5099650;28;20208;-81
2020/12/22 07:32:02;;;;;;;3.07;1.90;;;13.60;99.90;;;;;;5097669;28;20820;-81
2020/12/22 07:34:29;;;;;;;3.10;1.73;;;13.60;99.90;;;;;;5095959;28;20467;-81
2020/12/22 07:37:05;;;;;;;1.90;1.80;;;13.60;99.90;;;;;;5095596;28;20435;-81
2020/12/22 07:39:32;;;;;;;2.17;1.55;;;13.60;99.90;;;;;;5096702;28;20211;-80
2020/12/22 07:42:09;;;;;;;2.30;2.10;;;13.60;99.90;;;;;;5089178;28;20578;-80
2020/12/22 07:44:36;;;;;;;1.48;1.38;;;13.60;99.90;;;;;;5096176;28;20476;-83
2020/12/22 07:47:02;;;;;;;1.50;1.40;;;13.60;99.90;;;;;;5097347;28;20677;-82
2020/12/22 07:49:28;;;;;;;1.43;1.20;;;13.60;99.90;;;;;;5097892;28;20267;-78
2020/12/22 07:51:55;;;;;;;3.20;1.30;;;13.60;99.90;;;;;;5101324;28;20463;-80
2020/12/22 07:54:21;;;;;;;1.88;1.27;;;13.60;99.90;;;;;;5101221;28;20478;-79
2020/12/22 07:56:47;;;;;;;1.65;1.55;;;13.60;99.90;;;;;;5098683;28;20200;-80
2020/12/22 07:59:16;;;;;;;1.60;1.50;;;13.70;99.90;;;;;;5098581;28;20727;-79
2020/12/22 08:01:44;;;;;;;3.13;2.03;;;13.70;99.90;;;;;;5100546;28;20517;-82
2020/12/22 08:04:17;;;;;;;2.10;1.60;;;13.60;99.90;;;;;;5098913;28;20435;-78
2020/12/22 08:06:53;;;;;;;3.23;1.37;;;13.70;99.90;;;;;;5099558;28;20644;-78
2020/12/22 08:09:25;;;;;;;2.83;1.50;;;13.60;99.90;;;;;;5100866;28;20430;-80
2020/12/22 08:11:55;;;;;;;4.97;1.20;;;13.70;99.90;;;;;;5095095;28;20478;-80
2020/12/22 08:14:24;;;;;;;2.03;1.03;;;13.60;99.90;;;;;;5101251;28;20475;-84
2020/12/22 08:16:52;;;;;;;3.03;1.00;;;13.70;99.90;;;;;;5102318;28;20490;-82
2020/12/22 08:19:19;;;;;;;1.40;1.30;;;13.70;99.90;;;;;;5109030;28;20458;-81
2020/12/22 08:21:47;;;;;;;4.13;1.10;;;13.70;99.90;;;;;;5109179;28;20559;-82
2020/12/22 08:24:16;;;;;;;1.70;1.47;;;13.70;99.90;;;;;;5108154;28;20449;-81
2020/12/22 08:26:45;;;;;;;1.40;1.30;;;13.60;99.90;;;;;;5108485;28;20499;-85
2020/12/22 08:29:13;;;;;;;2.03;1.33;;;13.70;99.90;;;;;;5108377;28;20801;-79
2020/12/22 08:31:43;;;;;;;1.43;1.33;;;13.70;99.90;;;;;;5109884;28;20459;-81
2020/12/22 08:34:10;;;;;;;1.60;1.50;;;13.70;99.90;;;;;;5109301;28;20471;-82
2020/12/22 08:36:37;;;;;;;2.10;1.57;;;13.70;99.90;;;;;;5109374;28;20435;-84
2020/12/22 08:39:15;;;;;;;1.33;1.23;;;13.70;99.90;;;;;;5107914;28;20431;-82
2020/12/22 08:41:42;;;;;;;3.47;2.17;;;13.70;99.90;;;;;;5102429;28;20276;-84
2020/12/22 08:44:10;;;;;;;3.87;2.23;;;13.60;99.90;;;;;;5108659;28;20438;-81
2020/12/22 08:46:37;;;;;;;2.60;2.30;;;13.50;99.90;;;;;;5108481;28;20459;-83
2020/12/22 08:49:16;;;;;;;2.57;1.87;;;13.40;99.90;;;;;;5109436;28;20473;-85
2020/12/22 08:51:44;;;;;;;2.17;1.73;;;13.40;99.90;;;;;;5109732;28;20454;-83
2020/12/22 08:54:13;;;;;;;2.40;2.20;;;13.30;99.90;;;;;;5109751;28;20554;-86
2020/12/22 08:56:40;;;;;;;5.50;3.70;;;13.30;99.90;;;;;;5110347;28;20450;-82
2020/12/22 08:59:08;;;;;;;5.17;3.00;;;13.40;99.90;;;;;;5109287;28;20436;-83
2020/12/22 09:01:42;;;;;;;2.35;2.10;;;13.40;99.90;;;;;;5108940;28;20466;-83
2020/12/22 09:04:10;;;;;;;2.47;1.70;;;13.40;99.90;;;;;;5109283;28;20220;-84
2020/12/22 09:06:42;;;;;;;2.07;1.80;;;13.50;99.90;;;;;;5108678;28;20197;-83
2020/12/22 09:09:15;;;;;;;2.13;1.35;;;13.50;99.90;;;;;;5109499;28;20462;-83
2020/12/22 09:11:44;;;;;;;2.00;1.70;;;13.50;99.90;;;;;;5102299;28;20209;-85
2020/12/22 09:14:13;;;;;;;4.60;1.40;;;13.60;99.90;;;;;;5108279;28;20276;-84
2020/12/22 09:16:54;;;;;;;4.95;1.75;;;13.60;99.90;;;;;;5108149;28;20431;-84
2020/12/22 09:19:24;;;;;;;1.83;1.27;;;13.70;99.90;;;;;;5108516;28;20265;-83
2020/12/22 09:22:03;;;;;;;1.50;1.20;;;13.70;99.90;;;;;;5108988;28;20459;-81
2020/12/22 09:24:31;;;;;;;2.07;1.80;;;13.70;99.90;;;;;;5109320;28;20428;-83
2020/12/22 09:26:59;;;;;;;3.45;1.25;;;13.70;99.90;;;;;;5109015;28;20446;-83
2020/12/22 09:29:26;;;;;;;4.30;1.50;;;13.70;99.90;;;;;;5108934;28;20244;-84
2020/12/22 09:31:53;;;;;;;1.30;1.07;;;13.80;99.90;;;;;;5107780;28;20462;-86
2020/12/22 09:34:20;;;;;;;2.27;1.23;;;13.80;99.90;;;;;;5109433;28;20467;-82
2020/12/22 09:36:51;;;;;;;3.83;1.20;;;13.80;99.90;;;;;;5107554;28;20802;-85
2020/12/22 09:39:18;;;;;;;2.43;1.23;;;13.80;99.90;;;;;;5108121;28;20431;-81
2020/12/22 09:41:45;;;;;;;3.57;1.17;;;13.80;99.90;;;;;;5092295;28;20495;-82
2020/12/22 09:46:53;;;;;;;3.23;2.30;;;13.70;99.90;;;;;;4966049;28;20467;-77
2020/12/22 09:49:19;;;;;;;4.47;1.33;;;13.70;99.90;;;;;;4978472;28;20488;-78
2020/12/22 09:51:46;;;;;;;3.43;1.73;;;13.60;99.90;;;;;;4978348;28;20938;-77
2020/12/22 09:54:13;;;;;;;2.13;1.20;;;13.60;99.90;;;;;;4977259;28;20485;-76
2020/12/22 09:56:40;;;;;;;1.67;1.40;;;13.70;99.90;;;;;;4995552;28;20524;-78
2020/12/22 09:59:06;;;;;;;1.20;1.10;;;13.80;99.90;;;;;;4996293;28;20436;-77
2020/12/22 10:01:33;;;;;;;2.60;1.50;;;13.80;99.90;;;;;;4996128;28;20566;-77
2020/12/22 10:03:59;;;;;;;1.60;1.47;;;13.90;99.90;;;;;;4995585;28;20933;-78
2020/12/22 10:06:27;;;;;;;1.17;1.07;;;13.90;99.90;;;;;;4995191;28;20463;-77
2020/12/22 10:08:54;;;;;;;5.30;1.83;;;14.00;99.90;;;;;;4995729;28;20533;-77
2020/12/22 10:11:21;;;;;;;3.73;1.23;;;14.00;99.90;;;;;;4995563;28;20448;-77
2020/12/22 10:13:49;;;;;;;1.90;1.57;;;14.10;99.90;;;;;;4994993;28;20479;-78
2020/12/22 10:16:20;;;;;;;3.20;1.20;;;14.00;99.90;;;;;;4996346;28;20920;-76
2020/12/22 10:18:46;;;;;;;2.93;1.40;;;14.00;99.90;;;;;;4994847;28;20779;-78
2020/12/22 10:21:13;;;;;;;2.00;1.23;;;14.10;99.90;;;;;;4995621;28;20440;-78
2020/12/22 10:23:41;;;;;;;2.90;1.40;;;14.00;99.90;;;;;;4995152;28;20970;-77
2020/12/22 10:26:08;;;;;;;5.97;1.50;;;14.00;99.90;;;;;;4995569;28;20467;-78
2020/12/22 10:28:36;;;;;;;2.83;1.20;;;13.90;99.90;;;;;;4996018;28;20507;-77
2020/12/22 10:31:04;;;;;;;1.10;0.90;;;14.00;99.90;;;;;;4995423;28;20439;-77
2020/12/22 10:33:30;;;;;;;1.60;0.80;;;13.90;99.90;;;;;;5004794;28;20447;-75
2020/12/22 10:35:57;;;;;;;3.13;1.27;;;13.90;99.90;;;;;;4996730;28;20547;-77
2020/12/22 10:38:23;;;;;;;3.67;1.10;;;13.80;99.90;;;;;;4994666;28;20440;-78
2020/12/22 10:40:50;;;;;;;1.97;0.93;;;13.80;99.90;;;;;;4994205;28;20437;-77
2020/12/22 10:43:17;;;;;;;2.63;0.70;;;13.80;99.90;;;;;;4994171;28;20443;-77
2020/12/22 10:45:43;;;;;;;2.40;0.80;;;13.70;99.90;;;;;;5004284;28;20533;-76
2020/12/22 10:48:10;;;;;;;1.50;0.95;;;13.60;99.90;;;;;;5013963;28;20462;-78
2020/12/22 10:50:37;;;;;;;2.13;1.30;;;13.50;99.90;;;;;;5014377;28;20208;-78
2020/12/22 10:53:04;;;;;;;1.90;0.87;;;13.40;99.90;;;;;;5014043;28;20438;-76
2020/12/22 10:55:30;;;;;;;1.40;1.30;;;13.30;99.90;;;;;;5014100;28;20479;-77
2020/12/22 10:57:57;;;;;;;2.30;1.00;;;13.10;99.90;;;;;;5013794;28;20276;-77
2020/12/22 11:00:23;;;;;;;2.30;1.00;;;13.10;99.90;;;;;;5013648;28;20762;-75
2020/12/22 11:02:51;;;;;;;3.57;1.57;;;13.10;99.90;;;;;;5013552;28;20203;-77
2020/12/22 11:05:18;;;;;;;2.75;1.52;;;13.10;99.90;;;;;;5013759;28;20506;-76
2020/12/22 11:07:48;;;;;;;2.77;1.60;;;13.10;99.90;;;;;;5013247;28;20215;-77
2020/12/22 11:10:14;;;;;;;2.92;1.40;;;13.20;99.90;;;;;;5013973;28;20442;-76
2020/12/22 11:12:40;;;;;;;4.13;1.90;;;13.30;99.90;;;;;;5014639;28;20207;-77
2020/12/22 11:15:06;;;;;;;3.30;1.60;;;13.30;99.90;;;;;;5015650;28;20836;-79
2020/12/22 11:17:33;;;;;;;2.00;1.60;;;13.30;99.90;;;;;;5014563;28;20805;-78
2020/12/22 11:19:59;;;;;;;1.70;1.60;;;13.40;99.90;;;;;;5014994;28;20450;-78
2020/12/22 11:22:26;;;;;;;2.95;1.80;;;13.50;99.90;;;;;;5014089;28;20944;-75
2020/12/22 11:24:52;;;;;;;2.70;1.73;;;13.50;99.90;;;;;;5018683;28;20319;-78
2020/12/22 11:27:19;;;;;;;1.87;1.40;;;13.50;99.90;;;;;;5015939;28;20447;-76
2020/12/22 11:29:45;;;;;;;1.93;1.60;;;13.50;99.90;;;;;;5018740;28;20489;-78
2020/12/22 11:32:12;;;;;;;2.10;1.33;;;13.50;99.90;;;;;;5020604;28;20443;-77
2020/12/22 11:34:38;;;;;;;2.20;1.87;;;13.50;99.90;;;;;;5020663;28;20482;-78
2020/12/22 11:37:05;;;;;;;1.80;1.47;;;13.60;99.90;;;;;;5021085;28;20507;-77
2020/12/22 11:39:32;;;;;;;5.90;2.20;;;13.60;99.90;;;;;;5022269;28;20443;-79
2020/12/22 11:42:02;;;;;;;1.40;1.30;;;13.70;99.90;;;;;;5027341;28;20447;-79
2020/12/22 11:44:28;;;;;;;1.83;1.40;;;13.70;99.90;;;;;;5026347;28;20442;-79
2020/12/22 11:46:55;;;;;;;1.65;1.55;;;13.70;99.90;;;;;;5021375;28;20435;-78
2020/12/22 11:49:21;;;;;;;3.87;1.50;;;13.70;99.90;;;;;;5021894;28;20222;-75
2020/12/22 11:51:47;;;;;;;6.37;1.87;;;13.70;99.90;;;;;;5021470;28;20486;-78
2020/12/22 11:54:13;;;;;;;2.40;2.03;;;13.80;99.90;;;;;;5022526;28;20474;-77
2020/12/22 11:56:40;;;;;;;5.20;2.07;;;13.80;99.90;;;;;;5023505;28;20434;-78
2020/12/22 11:59:07;;;;;;;4.07;1.63;;;13.80;99.90;;;;;;5023556;28;20558;-78
2020/12/22 12:01:33;;;;;;;3.73;1.97;;;13.80;99.90;;;;;;5021990;28;20200;-78
2020/12/22 12:03:59;;;;;;;1.90;1.80;;;13.80;99.90;;;;;;5022349;28;20907;-78
2020/12/22 12:06:26;;;;;;;2.87;2.03;;;13.90;99.90;;;;;;5018646;28;20463;-76
2020/12/22 12:08:52;;;;;;;2.20;1.23;;;14.00;99.90;;;;;;5018576;28;20817;-77
2020/12/22 12:11:18;;;;;;;3.73;1.50;;;14.00;99.90;;;;;;5017563;28;20447;-77
2020/12/22 12:13:45;;;;;;;2.87;0.97;;;14.00;99.90;;;;;;5017270;28;20836;-77
2020/12/22 12:16:11;;;;;;;1.27;1.17;;;14.00;99.90;;;;;;5016936;28;20556;-76
2020/12/22 12:18:37;;;;;;;3.73;1.00;;;14.10;99.90;;;;;;5017062;28;20439;-79
2020/12/22 12:21:05;;;;;;;5.73;1.20;;;14.20;99.90;;;;;;5016578;28;20446;-77
2020/12/22 12:23:31;;;;;;;1.27;1.00;;;14.30;99.90;;;;;;5016624;28;20439;-77
2020/12/22 12:25:58;;;;;;;3.90;0.90;;;14.30;99.90;;;;;;5016488;28;20525;-77
2020/12/22 12:28:24;;;;;;;1.90;0.90;;;14.30;99.90;;;;;;5017083;28;20442;-77
2020/12/22 12:30:51;;;;;;;1.87;0.87;;;14.40;99.90;;;;;;5016195;28;20940;-77
2020/12/22 12:33:17;;;;;;;1.90;0.80;;;14.40;99.90;;;;;;5017360;28;20447;-78
2020/12/22 12:35:44;;;;;;;1.00;0.80;;;14.50;99.90;;;;;;5016958;28;20482;-77
2020/12/22 12:38:10;;;;;;;6.47;1.00;;;14.50;99.90;;;;;;5017773;28;20431;-78
2020/12/22 12:40:36;;;;;;;0.90;0.80;;;14.60;99.90;;;;;;5016474;28;20449;-77
2020/12/22 12:43:05;;;;;;;2.77;0.77;;;14.60;99.90;;;;;;5016848;28;20493;-77
2020/12/22 12:45:31;;;;;;;0.77;0.67;;;14.60;99.90;;;;;;5015792;28;20470;-78
2020/12/22 12:47:58;;;;;;;4.03;0.80;;;14.60;99.90;;;;;;5016632;28;20444;-76
2020/12/22 12:50:24;;;;;;;1.73;1.07;;;14.80;99.90;;;;;;5016739;28;20469;-76
2020/12/22 12:52:50;;;;;;;1.97;0.73;;;15.00;99.90;;;;;;5015711;28;20442;-77